Time;durP1;ratioP1;P1;durP2;ratioP2;P2;SDS_P1;SDS_P2;PMS_P1;PMS_P2;Temp;Humidity;BMP_temperature;BMP_pressure;BME280_temperature;BME280_humidity;BME280_pressure;Samples;Min_cycle;Max_cycle;Signal;HPM_P1;HPM_P2
2023/03/14 00:01:30;;;;;;;4.93;1.00;;;11.60;99.90;;;;;;5097254;28;20190;-63
2023/03/14 00:03:56;;;;;;;3.47;1.07;;;11.50;99.90;;;;;;5094530;28;20244;-62
2023/03/14 00:06:23;;;;;;;2.73;1.10;;;11.50;99.90;;;;;;5096993;28;20199;-62
2023/03/14 00:08:51;;;;;;;2.80;1.10;;;11.40;99.90;;;;;;5094540;28;20700;-62
2023/03/14 00:11:20;;;;;;;3.47;1.23;;;11.40;99.90;;;;;;5094292;28;20604;-62
2023/03/14 00:13:48;;;;;;;5.67;1.40;;;11.40;99.90;;;;;;5079215;28;20525;-62
2023/03/14 00:16:15;;;;;;;4.03;1.37;;;11.40;99.90;;;;;;5098530;28;20290;-62
2023/03/14 00:18:42;;;;;;;3.83;1.27;;;11.40;99.90;;;;;;5095726;28;20495;-62
2023/03/14 00:21:10;;;;;;;12.53;1.83;;;11.40;99.90;;;;;;5100652;28;20332;-62
2023/03/14 00:23:39;;;;;;;5.17;1.47;;;11.40;99.90;;;;;;5091252;28;20215;-62
2023/03/14 00:26:16;;;;;;;4.67;1.60;;;11.40;99.90;;;;;;5071968;28;20622;-62
2023/03/14 00:28:43;;;;;;;5.53;1.67;;;11.40;99.90;;;;;;5088439;28;20221;-62
2023/03/14 00:31:13;;;;;;;3.57;1.10;;;11.50;99.90;;;;;;5095699;28;20293;-62
2023/03/14 00:33:40;;;;;;;3.20;1.07;;;11.40;99.90;;;;;;5081385;28;20201;-62
2023/03/14 00:36:11;;;;;;;4.53;1.23;;;11.40;99.90;;;;;;5097608;28;20197;-62
2023/03/14 00:38:39;;;;;;;2.50;1.17;;;11.50;99.90;;;;;;5092945;28;20291;-62
2023/03/14 00:41:08;;;;;;;5.73;1.50;;;11.40;99.90;;;;;;5099167;28;20234;-62
2023/03/14 00:43:35;;;;;;;4.77;1.47;;;11.40;99.90;;;;;;5095073;28;20263;-62
2023/03/14 00:46:02;;;;;;;7.17;1.53;;;11.40;99.90;;;;;;5071844;28;20225;-61
2023/03/14 00:48:29;;;;;;;6.53;1.40;;;11.40;99.90;;;;;;5096220;28;20227;-61
2023/03/14 00:50:56;;;;;;;3.53;1.07;;;11.30;99.90;;;;;;5096020;28;20584;-62
2023/03/14 00:53:23;;;;;;;3.57;1.10;;;11.30;99.90;;;;;;5093378;28;20202;-61
2023/03/14 00:55:50;;;;;;;4.00;0.90;;;11.30;99.90;;;;;;5093938;28;20609;-62
2023/03/14 00:58:18;;;;;;;3.27;1.20;;;11.30;99.90;;;;;;5090883;28;20207;-61
2023/03/14 01:00:45;;;;;;;4.93;1.07;;;11.20;99.90;;;;;;5091312;28;20198;-62
2023/03/14 01:03:14;;;;;;;2.83;0.80;;;11.20;99.90;;;;;;5095509;28;20202;-61
2023/03/14 01:05:41;;;;;;;7.10;1.27;;;11.20;99.90;;;;;;5094894;28;20214;-61
2023/03/14 01:08:08;;;;;;;6.10;1.13;;;11.10;99.90;;;;;;5094184;28;20222;-62
2023/03/14 01:10:38;;;;;;;3.27;0.90;;;11.10;99.90;;;;;;5091342;28;20199;-62
2023/03/14 01:13:05;;;;;;;2.93;1.03;;;11.10;99.90;;;;;;5092943;28;20198;-62
2023/03/14 01:15:34;;;;;;;5.30;1.20;;;11.10;99.90;;;;;;5092036;28;20202;-62
2023/03/14 01:18:01;;;;;;;4.93;1.17;;;11.10;99.90;;;;;;5095897;28;20230;-62
2023/03/14 01:20:28;;;;;;;3.43;0.83;;;11.10;99.90;;;;;;5093954;28;20576;-61
2023/03/14 01:22:55;;;;;;;6.53;0.90;;;11.10;99.90;;;;;;5095405;28;20241;-61
2023/03/14 01:25:22;;;;;;;7.00;1.03;;;11.10;99.90;;;;;;5098472;28;20293;-62
2023/03/14 01:27:49;;;;;;;3.77;1.10;;;11.10;99.90;;;;;;5097178;28;20302;-62
2023/03/14 01:30:16;;;;;;;4.97;1.07;;;11.10;99.90;;;;;;5099573;28;20290;-64
2023/03/14 01:32:43;;;;;;;6.03;1.37;;;11.10;99.90;;;;;;5098684;28;20205;-63
2023/03/14 01:35:10;;;;;;;5.37;1.17;;;11.00;99.90;;;;;;5100205;28;20335;-61
2023/03/14 01:37:37;;;;;;;4.07;1.20;;;10.80;99.90;;;;;;5095520;28;20206;-65
2023/03/14 01:40:05;;;;;;;5.50;1.13;;;10.60;99.90;;;;;;5097232;28;20246;-61
2023/03/14 01:42:32;;;;;;;4.17;1.03;;;10.50;99.90;;;;;;5079526;28;20288;-61
2023/03/14 01:45:01;;;;;;;4.03;0.93;;;10.40;99.90;;;;;;5099675;28;20206;-61
2023/03/14 01:47:28;;;;;;;5.30;1.00;;;10.40;99.90;;;;;;5098431;28;20248;-61
2023/03/14 01:50:11;;;;;;;3.40;1.00;;;10.40;99.90;;;;;;5093164;28;20254;-61
2023/03/14 01:52:44;;;;;;;4.30;0.80;;;10.50;99.90;;;;;;5095219;28;20297;-61
2023/03/14 01:55:21;;;;;;;5.97;1.10;;;10.50;99.90;;;;;;5098522;28;20206;-61
2023/03/14 01:57:55;;;;;;;4.97;1.20;;;10.50;99.90;;;;;;5098883;28;20727;-61
2023/03/14 02:00:23;;;;;;;6.53;1.07;;;10.50;99.90;;;;;;5095767;28;20225;-61
2023/03/14 02:03:01;;;;;;;6.60;1.13;;;10.50;99.90;;;;;;5098205;28;20207;-62
2023/03/14 02:05:34;;;;;;;4.47;1.00;;;10.50;99.90;;;;;;5096662;28;20290;-61
2023/03/14 02:08:04;;;;;;;5.47;1.03;;;10.50;99.90;;;;;;5102308;28;20219;-61
2023/03/14 02:10:36;;;;;;;2.33;0.83;;;10.50;99.90;;;;;;5093964;28;20708;-61
2023/03/14 02:13:05;;;;;;;4.47;1.00;;;10.50;99.90;;;;;;5097974;28;20200;-61
2023/03/14 02:15:33;;;;;;;5.03;1.37;;;10.50;99.90;;;;;;5099951;28;20202;-61
2023/03/14 02:18:02;;;;;;;5.23;1.07;;;10.50;99.90;;;;;;5101298;28;20309;-62
2023/03/14 02:20:42;;;;;;;4.80;1.20;;;10.50;99.90;;;;;;5101087;28;20603;-60
2023/03/14 02:23:09;;;;;;;4.67;1.10;;;10.50;99.90;;;;;;5099844;28;20233;-61
2023/03/14 02:25:54;;;;;;;6.50;1.20;;;10.40;99.90;;;;;;5100192;28;20297;-61
2023/03/14 02:28:21;;;;;;;9.10;1.70;;;10.40;99.90;;;;;;5100355;28;20303;-61
2023/03/14 02:30:49;;;;;;;9.10;1.20;;;10.40;99.90;;;;;;5102277;28;20216;-61
2023/03/14 02:33:20;;;;;;;4.40;1.20;;;10.40;99.90;;;;;;5102201;28;20210;-61
2023/03/14 02:35:55;;;;;;;7.53;1.20;;;10.40;99.90;;;;;;5099922;28;20324;-61
2023/03/14 02:38:25;;;;;;;4.00;1.43;;;10.50;99.90;;;;;;5099370;28;20252;-61
2023/03/14 02:40:52;;;;;;;5.27;1.20;;;10.40;99.90;;;;;;5101845;28;20502;-61
2023/03/14 02:43:19;;;;;;;5.43;1.30;;;10.40;99.90;;;;;;5101211;28;20538;-61
2023/03/14 02:45:47;;;;;;;9.43;2.13;;;10.50;99.90;;;;;;5100338;28;20224;-61
2023/03/14 02:48:20;;;;;;;6.17;1.47;;;10.50;99.90;;;;;;5100293;28;20259;-61
2023/03/14 02:50:49;;;;;;;5.60;1.80;;;10.50;99.90;;;;;;5101953;28;20212;-61
2023/03/14 02:53:20;;;;;;;7.60;1.63;;;10.50;99.90;;;;;;5100041;28;20567;-62
2023/03/14 02:55:48;;;;;;;6.63;1.50;;;10.50;99.90;;;;;;5099911;28;20234;-61
2023/03/14 02:58:15;;;;;;;4.43;1.27;;;10.50;99.90;;;;;;5096377;28;20221;-62
2023/03/14 03:00:42;;;;;;;9.00;1.83;;;10.50;99.90;;;;;;5098037;28;20208;-62
2023/03/14 03:03:09;;;;;;;3.23;1.23;;;10.60;99.90;;;;;;5100356;28;20677;-61
2023/03/14 03:05:36;;;;;;;4.43;1.43;;;10.60;99.90;;;;;;5097608;28;20281;-61
2023/03/14 03:08:04;;;;;;;8.40;1.53;;;10.60;99.90;;;;;;5098204;28;20190;-61
2023/03/14 03:10:32;;;;;;;5.17;1.40;;;10.60;99.90;;;;;;5100744;28;20607;-61
2023/03/14 03:12:58;;;;;;;6.93;1.43;;;10.60;99.90;;;;;;5098751;28;20316;-61
2023/03/14 03:15:26;;;;;;;5.00;1.20;;;10.60;99.90;;;;;;5097679;28;20660;-61
2023/03/14 03:17:53;;;;;;;8.90;1.40;;;10.60;99.90;;;;;;5089411;28;20217;-61
2023/03/14 03:20:20;;;;;;;8.37;2.17;;;10.50;99.90;;;;;;5080303;28;20245;-61
2023/03/14 03:22:46;;;;;;;7.13;1.30;;;10.60;99.90;;;;;;5098701;28;20266;-61
2023/03/14 03:25:13;;;;;;;8.77;2.10;;;10.60;99.90;;;;;;5081510;28;20211;-61
2023/03/14 03:27:40;;;;;;;6.03;1.60;;;10.50;99.90;;;;;;5099234;28;20198;-61
2023/03/14 03:30:08;;;;;;;9.83;1.97;;;10.60;99.90;;;;;;5099732;28;20263;-62
2023/03/14 03:32:35;;;;;;;7.80;1.30;;;10.60;99.90;;;;;;5100400;28;20201;-61
2023/03/14 03:35:04;;;;;;;7.13;1.50;;;10.60;99.90;;;;;;5098751;28;20241;-61
2023/03/14 03:37:34;;;;;;;10.90;1.63;;;10.60;99.90;;;;;;5096238;28;20202;-61
2023/03/14 03:40:04;;;;;;;5.53;1.40;;;10.60;99.90;;;;;;5089180;28;20226;-57
2023/03/14 03:42:31;;;;;;;5.33;1.33;;;10.60;99.90;;;;;;5098343;28;20655;-57
2023/03/14 03:44:58;;;;;;;7.87;1.37;;;10.60;99.90;;;;;;5097213;28;20563;-56
2023/03/14 03:47:26;;;;;;;3.70;1.23;;;10.60;99.90;;;;;;5080971;28;21470;-57
2023/03/14 03:49:53;;;;;;;7.53;1.40;;;10.60;99.90;;;;;;5100086;28;20206;-57
2023/03/14 03:52:20;;;;;;;3.50;1.10;;;10.60;99.90;;;;;;5099670;28;20632;-57
2023/03/14 03:54:47;;;;;;;3.60;1.23;;;10.60;99.90;;;;;;5097683;28;20260;-57
2023/03/14 03:57:14;;;;;;;8.13;1.50;;;10.60;99.90;;;;;;5097512;28;20226;-56
2023/03/14 03:59:40;;;;;;;4.47;1.30;;;10.60;99.90;;;;;;5094456;27;20725;-57
2023/03/14 04:02:08;;;;;;;4.93;1.00;;;10.50;99.90;;;;;;5095573;28;20211;-59
2023/03/14 04:04:35;;;;;;;5.17;1.00;;;10.50;99.90;;;;;;5080710;28;20198;-57
2023/03/14 04:07:02;;;;;;;3.97;0.80;;;10.60;99.90;;;;;;5081256;28;20211;-58
2023/03/14 04:09:29;;;;;;;5.43;1.30;;;10.50;99.90;;;;;;5098253;28;20210;-58
2023/03/14 04:11:55;;;;;;;5.97;1.03;;;10.50;99.90;;;;;;5097387;28;20202;-58
2023/03/14 04:14:23;;;;;;;4.70;1.23;;;10.50;99.90;;;;;;5095031;28;20202;-61
2023/03/14 04:16:49;;;;;;;4.60;1.20;;;10.50;99.90;;;;;;5100968;28;20206;-58
2023/03/14 04:19:16;;;;;;;3.87;1.00;;;10.60;99.90;;;;;;5079767;28;20248;-58
2023/03/14 04:21:46;;;;;;;5.83;1.10;;;10.50;99.90;;;;;;5097013;28;20904;-59
2023/03/14 04:24:14;;;;;;;4.30;1.60;;;10.50;99.90;;;;;;5096623;28;20216;-58
2023/03/14 04:26:40;;;;;;;4.27;1.00;;;10.50;99.90;;;;;;5097886;28;20208;-59
2023/03/14 04:29:07;;;;;;;3.80;0.80;;;10.40;99.90;;;;;;5099341;28;20829;-59
2023/03/14 04:31:34;;;;;;;3.73;1.20;;;10.40;99.90;;;;;;5096384;28;20325;-61
2023/03/14 04:34:01;;;;;;;3.03;0.70;;;10.40;99.90;;;;;;5075156;28;20694;-58
2023/03/14 04:36:28;;;;;;;4.47;1.13;;;10.30;99.90;;;;;;5095506;28;20211;-58
2023/03/14 04:38:55;;;;;;;4.23;1.10;;;10.30;99.90;;;;;;5093306;28;20209;-58
2023/03/14 04:41:22;;;;;;;6.00;0.97;;;10.20;99.90;;;;;;5097488;28;20284;-60
2023/03/14 04:43:49;;;;;;;1.83;0.80;;;10.20;99.90;;;;;;5098080;28;20268;-59
2023/03/14 04:46:16;;;;;;;3.77;0.90;;;10.20;99.90;;;;;;5079883;28;20255;-59
2023/03/14 04:48:42;;;;;;;3.80;0.80;;;10.20;99.90;;;;;;5099070;28;20252;-59
2023/03/14 04:51:09;;;;;;;5.70;0.97;;;10.20;99.90;;;;;;5098966;28;20206;-60
2023/03/14 04:53:36;;;;;;;3.93;1.10;;;10.20;99.90;;;;;;5094592;28;20698;-60
2023/03/14 04:56:04;;;;;;;4.17;1.50;;;10.20;99.90;;;;;;5079352;28;20210;-59
2023/03/14 04:58:31;;;;;;;4.87;1.10;;;10.10;99.90;;;;;;5095852;28;20199;-59
2023/03/14 05:01:03;;;;;;;1.70;0.80;;;10.20;99.90;;;;;;5079243;28;20226;-59
2023/03/14 05:03:30;;;;;;;4.57;1.10;;;10.10;99.90;;;;;;5094295;28;20742;-59
2023/03/14 05:05:58;;;;;;;4.00;1.13;;;10.10;99.90;;;;;;5093597;28;20280;-59
2023/03/14 05:08:25;;;;;;;7.43;1.67;;;10.10;99.90;;;;;;5093115;28;20198;-59
2023/03/14 05:10:54;;;;;;;1.50;0.90;;;10.10;99.90;;;;;;5099062;28;20233;-59
2023/03/14 05:13:21;;;;;;;2.83;1.00;;;10.10;99.90;;;;;;5097354;28;20202;-60
2023/03/14 05:15:50;;;;;;;4.90;1.70;;;10.10;99.90;;;;;;5096795;28;20243;-60
2023/03/14 05:18:20;;;;;;;3.83;1.10;;;10.10;99.90;;;;;;5098197;28;20780;-60
2023/03/14 05:20:50;;;;;;;2.83;1.03;;;10.10;99.90;;;;;;5078639;28;20213;-60
2023/03/14 05:23:17;;;;;;;3.13;1.10;;;10.10;99.90;;;;;;5077870;28;20244;-60
2023/03/14 05:25:44;;;;;;;4.07;1.53;;;10.10;99.90;;;;;;5096605;28;20216;-59
2023/03/14 05:28:11;;;;;;;5.10;1.63;;;10.10;99.90;;;;;;5080110;28;20795;-59
2023/03/14 05:30:38;;;;;;;3.40;1.70;;;10.10;99.90;;;;;;5097954;28;20217;-59
2023/03/14 05:33:05;;;;;;;3.07;1.60;;;10.00;99.90;;;;;;5081360;28;20271;-59
2023/03/14 05:35:32;;;;;;;3.93;1.80;;;10.00;99.90;;;;;;5078133;28;20774;-59
2023/03/14 05:37:58;;;;;;;3.53;1.67;;;9.90;99.90;;;;;;5096403;28;20261;-59
2023/03/14 05:40:25;;;;;;;3.23;1.97;;;9.90;99.90;;;;;;5097548;28;20448;-59
2023/03/14 05:42:52;;;;;;;5.93;1.80;;;9.80;99.90;;;;;;5097551;28;20201;-59
2023/03/14 05:45:19;;;;;;;4.13;1.70;;;9.80;99.90;;;;;;5096750;28;20292;-59
2023/03/14 05:47:46;;;;;;;2.40;1.80;;;9.80;99.90;;;;;;5097984;28;20213;-59
2023/03/14 05:50:13;;;;;;;3.33;2.20;;;9.80;99.90;;;;;;5098289;28;20320;-59
2023/03/14 05:52:40;;;;;;;7.90;2.40;;;9.90;99.90;;;;;;5079753;28;20661;-60
2023/03/14 05:55:07;;;;;;;6.00;2.50;;;9.80;99.90;;;;;;5097678;28;20571;-60
2023/03/14 05:57:34;;;;;;;2.60;2.03;;;9.90;99.90;;;;;;5097325;28;20198;-60
2023/03/14 06:00:00;;;;;;;4.90;2.50;;;9.90;99.90;;;;;;5098664;28;20697;-60
2023/03/14 06:02:27;;;;;;;2.83;2.07;;;9.90;99.90;;;;;;5080074;28;20202;-60
2023/03/14 06:04:54;;;;;;;4.43;2.33;;;9.80;99.90;;;;;;5097497;28;20202;-63
2023/03/14 06:07:21;;;;;;;3.73;2.03;;;9.90;99.90;;;;;;5096429;28;20582;-60
2023/03/14 06:09:48;;;;;;;2.90;2.17;;;9.90;99.90;;;;;;5099203;28;20268;-59
2023/03/14 06:12:15;;;;;;;5.03;2.60;;;9.90;99.90;;;;;;5102041;28;20233;-60
2023/03/14 06:14:41;;;;;;;5.60;2.30;;;9.90;99.90;;;;;;5102098;28;20248;-59
2023/03/14 06:17:08;;;;;;;9.57;2.60;;;9.90;99.90;;;;;;5101222;28;20652;-59
2023/03/14 06:19:35;;;;;;;8.27;2.67;;;9.90;99.90;;;;;;5082002;28;20233;-60
2023/03/14 06:22:02;;;;;;;5.47;2.53;;;9.90;99.90;;;;;;5097841;28;20753;-60
2023/03/14 06:24:29;;;;;;;6.77;2.70;;;9.90;99.90;;;;;;5099899;28;20288;-62
2023/03/14 06:26:55;;;;;;;5.20;3.13;;;9.80;99.90;;;;;;5100761;28;20228;-59
2023/03/14 06:29:22;;;;;;;5.33;2.50;;;9.90;99.90;;;;;;5100375;28;20338;-59
2023/03/14 06:31:49;;;;;;;8.73;3.17;;;9.80;99.90;;;;;;5095375;28;20208;-59
2023/03/14 06:34:16;;;;;;;6.47;2.73;;;9.80;99.90;;;;;;5089867;28;20248;-59
2023/03/14 06:36:43;;;;;;;5.03;3.10;;;9.80;99.90;;;;;;5089455;28;20323;-59
2023/03/14 06:39:09;;;;;;;5.77;2.80;;;9.80;99.90;;;;;;5081133;28;20801;-59
2023/03/14 06:41:36;;;;;;;4.60;2.87;;;9.80;99.90;;;;;;5087778;27;20216;-59
2023/03/14 06:44:03;;;;;;;5.57;3.53;;;9.90;99.90;;;;;;5076972;28;20542;-59
2023/03/14 06:46:30;;;;;;;7.40;3.90;;;9.80;99.90;;;;;;5096042;27;20327;-60
2023/03/14 06:48:57;;;;;;;5.10;3.50;;;9.80;99.90;;;;;;5092689;28;20680;-59
2023/03/14 06:51:24;;;;;;;6.07;3.23;;;9.80;99.90;;;;;;5090812;28;20324;-59
2023/03/14 06:53:51;;;;;;;7.03;4.07;;;9.80;99.90;;;;;;5072673;28;20288;-59
2023/03/14 06:56:18;;;;;;;6.43;3.47;;;9.80;99.90;;;;;;5091071;28;20236;-59
2023/03/14 06:58:45;;;;;;;9.40;4.10;;;9.80;99.90;;;;;;4731694;27;10000296;-60
2023/03/14 07:01:34;;;;;;;5.30;3.80;;;9.80;99.90;;;;;;5066528;28;21009;-59
2023/03/14 07:04:02;;;;;;;10.30;4.03;;;9.80;99.90;;;;;;5088198;28;20208;-60
2023/03/14 07:06:29;;;;;;;3.50;2.13;;;9.90;99.90;;;;;;5089338;28;20301;-59
2023/03/14 07:08:56;;;;;;;3.07;1.50;;;9.40;99.90;;;;;;5088003;27;20808;-59
2023/03/14 07:11:23;;;;;;;1.70;0.90;;;9.40;99.90;;;;;;5093426;27;20203;-59
2023/03/14 07:13:50;;;;;;;2.53;0.77;;;9.10;99.90;;;;;;5083732;28;20212;-59
2023/03/14 07:16:17;;;;;;;2.70;0.80;;;8.80;99.90;;;;;;5071515;28;20245;-60
2023/03/14 07:18:44;;;;;;;4.57;0.70;;;8.90;99.90;;;;;;5084426;28;20218;-60
2023/03/14 07:21:12;;;;;;;2.10;0.63;;;8.80;99.90;;;;;;5074144;28;22069;-59
2023/03/14 07:23:38;;;;;;;3.13;0.70;;;8.80;99.90;;;;;;5093029;28;20322;-60
2023/03/14 07:26:06;;;;;;;2.13;0.67;;;8.80;99.90;;;;;;5077843;28;20216;-59
2023/03/14 07:28:33;;;;;;;1.50;0.50;;;8.80;99.90;;;;;;5093330;28;20544;-59
2023/03/14 07:31:00;;;;;;;1.17;0.90;;;8.70;99.90;;;;;;5092437;28;20214;-60
2023/03/14 07:33:27;;;;;;;3.27;0.70;;;8.70;99.90;;;;;;5092321;28;20209;-59
2023/03/14 07:35:55;;;;;;;3.03;0.73;;;8.80;99.90;;;;;;5092830;27;20338;-60
2023/03/14 07:38:22;;;;;;;2.20;0.93;;;8.80;99.90;;;;;;5091345;28;20588;-60
2023/03/14 07:40:49;;;;;;;2.50;0.93;;;8.80;99.90;;;;;;5092727;27;20576;-60
2023/03/14 07:43:16;;;;;;;1.40;1.00;;;8.70;99.90;;;;;;5092646;28;20246;-60
2023/03/14 07:45:46;;;;;;;0.97;0.80;;;8.80;99.90;;;;;;5090179;28;20203;-62
2023/03/14 07:48:16;;;;;;;3.70;1.17;;;8.80;99.90;;;;;;5090908;27;20621;-59
2023/03/14 07:50:43;;;;;;;0.90;0.80;;;8.70;99.90;;;;;;5074074;28;20301;-61
2023/03/14 07:53:10;;;;;;;3.70;0.90;;;8.80;99.90;;;;;;5085457;28;21476;-60
2023/03/14 07:55:37;;;;;;;4.03;1.20;;;8.90;99.90;;;;;;5089249;28;20281;-60
2023/03/14 07:58:04;;;;;;;1.43;0.87;;;8.80;99.90;;;;;;5097188;28;20268;-62
2023/03/14 08:00:30;;;;;;;2.97;0.80;;;8.60;99.90;;;;;;5092671;27;20285;-60
2023/03/14 08:02:57;;;;;;;1.03;0.60;;;8.50;99.90;;;;;;5093897;28;20699;-59
2023/03/14 08:05:24;;;;;;;1.80;0.80;;;8.50;99.90;;;;;;5096294;27;21139;-60
2023/03/14 08:07:51;;;;;;;1.60;0.70;;;8.60;99.90;;;;;;5094347;28;20601;-60
2023/03/14 08:10:22;;;;;;;1.50;0.80;;;8.50;99.90;;;;;;5087378;28;20238;-59
2023/03/14 08:12:55;;;;;;;2.53;0.93;;;8.60;99.90;;;;;;5074499;28;20235;-60
2023/03/14 08:15:23;;;;;;;2.17;0.87;;;8.60;99.90;;;;;;5091405;27;20806;-60
2023/03/14 08:17:51;;;;;;;1.97;1.07;;;8.70;99.90;;;;;;5074026;28;20250;-59
2023/03/14 08:20:18;;;;;;;0.97;0.73;;;8.80;99.90;;;;;;5092848;28;20216;-62
2023/03/14 08:22:45;;;;;;;1.27;0.57;;;8.70;99.90;;;;;;5090619;27;20285;-59
2023/03/14 08:25:13;;;;;;;1.67;0.90;;;8.70;99.90;;;;;;5092237;28;20209;-59
2023/03/14 08:27:41;;;;;;;1.07;0.97;;;8.70;99.90;;;;;;5093721;28;20236;-59
2023/03/14 08:30:10;;;;;;;1.47;1.20;;;8.70;99.90;;;;;;5089457;28;20853;-60
2023/03/14 08:32:38;;;;;;;6.37;1.20;;;8.70;99.90;;;;;;5090933;28;20315;-62
2023/03/14 08:35:06;;;;;;;5.23;1.37;;;8.70;99.90;;;;;;5085342;28;20225;-57
2023/03/14 08:37:33;;;;;;;2.27;0.97;;;8.70;99.90;;;;;;5095552;28;20319;-57
2023/03/14 08:40:01;;;;;;;4.47;1.00;;;8.70;99.90;;;;;;5094130;28;20209;-59
2023/03/14 08:42:27;;;;;;;4.80;1.03;;;8.80;99.90;;;;;;5092968;28;20199;-57
2023/03/14 08:44:55;;;;;;;2.43;1.00;;;8.80;99.90;;;;;;5094360;28;20198;-57
2023/03/14 08:47:21;;;;;;;2.93;1.30;;;8.80;99.90;;;;;;5095444;28;20202;-58
2023/03/14 08:49:48;;;;;;;3.53;1.10;;;8.70;99.90;;;;;;5079352;28;20215;-59
2023/03/14 08:52:18;;;;;;;3.73;1.23;;;8.70;99.90;;;;;;5092319;28;20234;-57
2023/03/14 08:54:45;;;;;;;8.43;1.20;;;8.50;99.90;;;;;;5094169;28;20304;-56
2023/03/14 08:57:12;;;;;;;1.60;0.67;;;8.50;99.90;;;;;;5077696;28;20201;-57
2023/03/14 08:59:38;;;;;;;1.77;0.67;;;8.40;99.90;;;;;;5096469;28;20235;-57
2023/03/14 09:02:05;;;;;;;3.43;0.77;;;8.30;99.90;;;;;;5097969;28;20202;-57
2023/03/14 09:04:33;;;;;;;2.53;0.70;;;8.40;99.90;;;;;;5095864;28;20320;-58
2023/03/14 09:07:00;;;;;;;1.13;0.50;;;8.30;99.90;;;;;;5079185;28;20347;-57
2023/03/14 09:09:27;;;;;;;1.93;0.77;;;8.30;99.90;;;;;;5097520;28;20198;-57
2023/03/14 09:11:54;;;;;;;1.43;0.90;;;8.20;99.90;;;;;;5093077;28;20240;-57
2023/03/14 09:14:21;;;;;;;1.83;0.90;;;8.10;99.90;;;;;;5095177;28;20213;-59
2023/03/14 09:16:49;;;;;;;2.10;0.57;;;8.10;99.90;;;;;;5098147;28;20195;-57
2023/03/14 09:19:16;;;;;;;1.73;0.70;;;8.00;99.90;;;;;;5078595;28;20227;-57
2023/03/14 09:21:43;;;;;;;1.47;0.43;;;7.80;99.90;;;;;;5096195;28;20552;-57
2023/03/14 09:24:10;;;;;;;2.57;0.40;;;7.70;99.90;;;;;;5094600;28;20264;-57
2023/03/14 09:26:37;;;;;;;1.23;0.30;;;7.40;99.90;;;;;;5095886;28;20206;-57
2023/03/14 09:29:04;;;;;;;0.73;0.27;;;7.20;99.90;;;;;;5096683;28;20624;-57
2023/03/14 09:31:31;;;;;;;0.30;0.30;;;7.00;99.90;;;;;;5076416;28;20389;-57
2023/03/14 09:33:58;;;;;;;1.53;0.30;;;7.00;99.90;;;;;;5095707;28;20281;-58
2023/03/14 09:36:26;;;;;;;1.43;0.50;;;7.00;99.90;;;;;;5095069;28;20623;-57
2023/03/14 09:38:52;;;;;;;1.47;0.37;;;7.10;99.90;;;;;;5078090;28;20203;-57
2023/03/14 09:41:29;;;;;;;2.97;0.37;;;7.30;99.90;;;;;;5096711;28;20720;-57
2023/03/14 09:44:14;;;;;;;2.97;0.53;;;7.30;99.90;;;;;;5094787;28;20311;-58
2023/03/14 09:46:47;;;;;;;1.17;0.50;;;7.40;99.90;;;;;;5099941;28;20208;-57
2023/03/14 09:49:40;;;;;;;3.90;0.63;;;7.50;99.90;;;;;;5099128;28;20218;-57
2023/03/14 09:52:23;;;;;;;2.83;0.47;;;7.60;99.90;;;;;;5076185;28;20256;-57
2023/03/14 09:54:54;;;;;;;4.23;0.60;;;7.70;99.90;;;;;;5100256;28;20577;-57
2023/03/14 09:57:24;;;;;;;1.60;0.60;;;7.80;99.90;;;;;;5096956;28;20266;-58
2023/03/14 09:59:56;;;;;;;4.20;0.70;;;7.80;99.90;;;;;;5099608;28;20243;-57
2023/03/14 10:02:25;;;;;;;1.97;0.57;;;7.60;99.90;;;;;;5098896;28;20210;-57
2023/03/14 10:04:54;;;;;;;3.23;0.77;;;7.60;99.90;;;;;;5099362;28;20286;-57
2023/03/14 10:07:30;;;;;;;6.53;1.00;;;7.60;99.90;;;;;;5095942;28;20201;-57
2023/03/14 10:09:58;;;;;;;6.90;1.07;;;7.70;99.90;;;;;;5099179;28;20201;-57
2023/03/14 10:12:36;;;;;;;5.27;0.90;;;7.60;99.90;;;;;;5098838;28;20280;-57
2023/03/14 10:15:07;;;;;;;5.10;1.00;;;7.70;99.90;;;;;;5101377;28;20285;-57
2023/03/14 10:17:43;;;;;;;9.20;1.70;;;7.80;99.90;;;;;;5100831;28;20731;-57
2023/03/14 10:20:48;;;;;;;7.10;1.23;;;7.70;99.90;;;;;;5099014;28;20199;-61
2023/03/14 10:23:15;;;;;;;6.87;0.97;;;7.60;99.90;;;;;;5099052;28;20235;-57
2023/03/14 10:25:45;;;;;;;5.20;1.03;;;7.70;99.90;;;;;;5096002;28;20650;-57
2023/03/14 10:28:28;;;;;;;6.53;1.03;;;7.60;99.90;;;;;;5099344;28;20679;-57
2023/03/14 10:30:56;;;;;;;5.37;1.23;;;7.40;99.90;;;;;;5101547;27;20241;-57
2023/03/14 10:33:26;;;;;;;7.97;1.20;;;7.20;99.90;;;;;;5099747;28;20205;-57
2023/03/14 10:35:59;;;;;;;7.40;1.10;;;7.00;99.90;;;;;;5100750;28;20311;-58
2023/03/14 10:38:36;;;;;;;10.63;1.40;;;6.90;99.90;;;;;;5098546;28;20207;-58
2023/03/14 10:41:25;;;;;;;11.20;2.20;;;6.70;99.90;;;;;;5105256;28;20318;-58
2023/03/14 10:43:58;;;;;;;10.03;1.97;;;6.80;99.90;;;;;;5100085;28;20655;-62
2023/03/14 10:46:29;;;;;;;6.07;1.03;;;7.00;99.90;;;;;;5095337;28;20230;-62
2023/03/14 10:48:56;;;;;;;8.97;1.77;;;7.30;99.90;;;;;;5100454;28;20194;-61
2023/03/14 10:51:29;;;;;;;10.83;1.67;;;7.50;99.90;;;;;;5097489;28;20249;-61
2023/03/14 10:54:00;;;;;;;5.47;1.43;;;7.80;99.90;;;;;;5098064;27;20223;-62
2023/03/14 10:56:34;;;;;;;7.80;1.27;;;8.00;99.90;;;;;;5096598;28;20252;-62
2023/03/14 10:59:02;;;;;;;6.10;1.30;;;8.10;99.90;;;;;;5096864;28;20203;-61
2023/03/14 11:01:47;;;;;;;7.87;1.63;;;8.10;99.90;;;;;;5097587;28;20294;-62
2023/03/14 11:04:56;;;;;;;7.13;1.10;;;8.20;99.90;;;;;;5095333;28;20219;-61
2023/03/14 11:07:32;;;;;;;5.97;1.60;;;8.10;99.90;;;;;;5096707;27;20613;-62
2023/03/14 11:10:21;;;;;;;8.50;1.77;;;7.90;99.90;;;;;;5095796;28;20247;-62
2023/03/14 11:13:02;;;;;;;3.47;1.30;;;7.70;99.90;;;;;;5096148;28;20192;-61
2023/03/14 11:16:03;;;;;;;6.50;1.57;;;7.50;99.90;;;;;;5096653;28;20277;-62
2023/03/14 11:18:53;;;;;;;10.97;1.40;;;7.50;99.90;;;;;;5099538;28;20273;-61
2023/03/14 11:21:29;;;;;;;4.17;1.03;;;6.90;99.90;;;;;;5097509;28;20225;-61
2023/03/14 11:24:03;;;;;;;9.57;1.93;;;6.90;99.90;;;;;;5097495;28;20208;-62
2023/03/14 11:26:53;;;;;;;8.37;1.90;;;7.00;99.90;;;;;;5097483;28;20654;-61
2023/03/14 11:29:22;;;;;;;10.87;1.93;;;7.10;99.90;;;;;;5080457;28;20581;-61
2023/03/14 11:31:52;;;;;;;5.67;1.70;;;7.30;99.90;;;;;;5098222;28;20744;-62
2023/03/14 11:34:35;;;;;;;10.70;1.37;;;7.50;99.90;;;;;;5098526;28;20721;-62
2023/03/14 11:37:34;;;;;;;9.40;1.67;;;7.70;99.90;;;;;;5099417;28;20275;-62
2023/03/14 11:40:14;;;;;;;6.47;1.60;;;7.80;99.90;;;;;;5096707;28;20212;-61
2023/03/14 11:42:44;;;;;;;11.30;2.57;;;7.80;99.90;;;;;;5095151;28;20659;-61
2023/03/14 11:45:18;;;;;;;10.43;1.73;;;7.90;99.90;;;;;;5095165;28;20226;-61
2023/03/14 11:47:51;;;;;;;9.27;1.57;;;7.80;99.90;;;;;;5078439;28;20249;-61
2023/03/14 11:50:20;;;;;;;3.90;1.10;;;7.60;99.90;;;;;;5092674;28;20282;-61
2023/03/14 11:52:50;;;;;;;6.43;1.70;;;6.90;99.90;;;;;;5095949;28;20226;-62
2023/03/14 11:55:36;;;;;;;4.63;1.53;;;6.80;99.90;;;;;;5079735;28;20204;-62
2023/03/14 11:58:30;;;;;;;8.20;1.47;;;6.90;99.90;;;;;;5095523;28;20355;-62
2023/03/14 12:01:02;;;;;;;7.10;1.17;;;7.10;99.90;;;;;;5092274;28;20207;-61
2023/03/14 12:03:36;;;;;;;4.30;1.20;;;7.20;99.90;;;;;;5097112;28;20219;-62
2023/03/14 12:06:12;;;;;;;3.60;1.20;;;7.20;99.90;;;;;;5096546;28;20256;-62
2023/03/14 12:08:57;;;;;;;5.33;1.67;;;7.50;99.90;;;;;;5092681;28;20206;-62
2023/03/14 12:12:02;;;;;;;4.10;1.67;;;7.70;99.90;;;;;;5092702;28;20662;-62
2023/03/14 12:14:32;;;;;;;6.33;1.90;;;8.10;99.90;;;;;;5011234;28;20861;-62
2023/03/14 12:17:07;;;;;;;10.57;1.90;;;8.60;99.90;;;;;;5012655;28;20558;-63
2023/03/14 12:19:36;;;;;;;12.63;2.17;;;8.70;99.90;;;;;;5015043;28;20245;-62
2023/03/14 12:22:25;;;;;;;6.70;2.00;;;8.70;99.90;;;;;;5002671;28;20236;-62
2023/03/14 12:25:02;;;;;;;10.03;2.00;;;9.10;99.90;;;;;;5002199;28;20596;-62
2023/03/14 12:27:44;;;;;;;8.13;2.37;;;9.30;99.90;;;;;;5011963;28;20308;-62
2023/03/14 12:30:37;;;;;;;15.33;2.67;;;9.70;99.90;;;;;;5013171;28;20298;-62
2023/03/14 12:33:10;;;;;;;7.83;1.87;;;10.10;99.90;;;;;;5015944;28;20682;-62
2023/03/14 12:35:51;;;;;;;7.53;2.40;;;10.90;99.90;;;;;;4997080;28;21234;-62
2023/03/14 12:38:24;;;;;;;14.50;2.50;;;10.40;99.90;;;;;;5012088;28;20226;-62
2023/03/14 12:41:01;;;;;;;7.87;2.33;;;10.10;99.90;;;;;;5010347;28;20626;-62
2023/03/14 12:43:31;;;;;;;8.60;2.13;;;9.90;99.90;;;;;;5005220;28;20212;-62
2023/03/14 12:46:12;;;;;;;10.43;1.80;;;10.00;99.90;;;;;;5009837;28;20668;-62
2023/03/14 12:48:40;;;;;;;6.87;1.40;;;10.20;99.90;;;;;;5056742;28;20541;-62
2023/03/14 12:51:26;;;;;;;7.07;1.33;;;10.50;99.90;;;;;;5067377;28;20304;-62
2023/03/14 12:54:17;;;;;;;7.07;1.40;;;10.80;99.90;;;;;;5093508;28;20234;-62
2023/03/14 12:56:50;;;;;;;9.63;1.90;;;10.50;99.90;;;;;;5093372;28;20203;-62
2023/03/14 12:59:29;;;;;;;8.33;1.17;;;10.60;99.90;;;;;;5076695;28;20236;-64
2023/03/14 13:02:03;;;;;;;2.77;0.83;;;10.60;99.90;;;;;;5093974;28;20258;-62
2023/03/14 13:04:36;;;;;;;4.50;1.17;;;10.50;99.90;;;;;;5096631;28;20302;-62
2023/03/14 13:07:12;;;;;;;5.03;1.27;;;10.10;99.90;;;;;;5096200;28;20295;-62